createdAt,value
2022-10-24T00:00:13.301Z,1.70
2022-10-24T00:02:40.093Z,1.83
2022-10-24T00:05:07.178Z,1.77
2022-10-24T00:07:33.917Z,1.48
2022-10-24T00:10:00.600Z,1.50
2022-10-24T00:12:27.312Z,1.70
2022-10-24T00:14:54.001Z,2.10
2022-10-24T00:17:20.844Z,2.53
2022-10-24T00:19:47.586Z,1.33
2022-10-24T00:22:14.265Z,2.33
2022-10-24T00:24:40.972Z,2.08
2022-10-24T00:27:09.616Z,1.90
2022-10-24T00:29:36.360Z,2.00
2022-10-24T00:32:03.121Z,1.80
2022-10-24T00:34:30.007Z,1.70
2022-10-24T00:36:56.769Z,1.90
2022-10-24T00:39:23.560Z,2.08
2022-10-24T00:41:50.523Z,2.08
2022-10-24T00:44:21.587Z,2.15
2022-10-24T00:47:02.254Z,1.50
2022-10-24T00:50:00.696Z,1.87
2022-10-24T00:52:46.409Z,2.90
2022-10-24T00:55:14.705Z,1.98
2022-10-24T00:58:01.721Z,1.42
2022-10-24T01:00:32.778Z,2.08
2022-10-24T01:03:00.294Z,1.83
2022-10-24T01:05:37.440Z,2.28
2022-10-24T01:08:06.825Z,1.70
2022-10-24T01:10:33.780Z,1.42
2022-10-24T01:13:18.404Z,1.70
2022-10-24T01:16:11.813Z,2.13
2022-10-24T01:18:49.253Z,2.40
2022-10-24T01:21:28.750Z,3.15
2022-10-24T01:24:31.143Z,2.88
2022-10-24T01:27:19.565Z,2.97
2022-10-24T01:29:53.842Z,3.28
2022-10-24T01:32:31.378Z,2.67
2022-10-24T01:35:16.429Z,3.83
2022-10-24T01:38:17.327Z,3.40
2022-10-24T01:40:50.823Z,4.82
2022-10-24T01:43:23.274Z,3.20
2022-10-24T01:45:55.929Z,2.75
2022-10-24T01:48:25.050Z,5.20
2022-10-24T01:50:54.315Z,3.42
2022-10-24T01:53:24.984Z,3.67
2022-10-24T01:55:53.487Z,3.22
2022-10-24T01:58:20.953Z,2.50
2022-10-24T02:00:49.406Z,3.35
2022-10-24T02:03:26.873Z,2.65
2022-10-24T02:05:59.145Z,2.70
2022-10-24T02:08:32.277Z,3.13
2022-10-24T02:11:01.893Z,2.88
2022-10-24T02:13:39.509Z,3.60
2022-10-24T02:16:06.988Z,3.72
2022-10-24T02:18:34.825Z,3.13
2022-10-24T02:21:23.080Z,3.03
2022-10-24T02:24:13.594Z,2.67
2022-10-24T02:26:57.213Z,4.07
2022-10-24T02:29:41.005Z,4.07
2022-10-24T02:32:12.586Z,3.55
2022-10-24T02:37:08.444Z,3.22
2022-10-24T02:39:36.182Z,3.17
2022-10-24T02:42:05.474Z,2.97
2022-10-24T02:44:32.541Z,3.10
2022-10-24T02:47:03.972Z,3.03
2022-10-24T02:49:30.962Z,2.67
2022-10-24T02:51:57.929Z,3.50
2022-10-24T02:54:24.655Z,2.97
2022-10-24T02:56:56.524Z,3.90
2022-10-24T02:59:23.294Z,3.65
2022-10-24T03:01:50.212Z,3.45
2022-10-24T03:04:17.280Z,2.92
2022-10-24T03:06:44.269Z,3.47
2022-10-24T03:09:11.053Z,3.92
2022-10-24T03:11:37.887Z,2.50
2022-10-24T03:14:04.815Z,3.58
2022-10-24T03:16:31.705Z,3.55
2022-10-24T03:18:58.482Z,3.33
2022-10-24T03:21:25.277Z,3.80
2022-10-24T03:23:52.060Z,3.20
2022-10-24T03:26:18.847Z,3.10
2022-10-24T03:28:45.571Z,2.70
2022-10-24T03:31:12.279Z,2.95
2022-10-24T03:33:38.966Z,3.90
2022-10-24T03:36:06.209Z,3.28
2022-10-24T03:38:32.945Z,2.60
2022-10-24T03:40:59.628Z,3.25
2022-10-24T03:43:26.358Z,2.92
2022-10-24T03:45:53.049Z,3.10
2022-10-24T03:48:19.796Z,2.65
2022-10-24T03:50:46.490Z,4.00
2022-10-24T03:53:13.231Z,2.97
2022-10-24T03:55:39.921Z,3.00
2022-10-24T03:58:07.034Z,2.95
2022-10-24T04:00:39.102Z,3.13
2022-10-24T04:03:06.903Z,2.35
2022-10-24T04:05:34.577Z,2.70
2022-10-24T04:08:01.689Z,3.03
2022-10-24T04:10:29.017Z,3.05
2022-10-24T04:12:55.817Z,2.22
2022-10-24T04:15:22.590Z,2.45
2022-10-24T04:17:49.380Z,2.60
2022-10-24T04:20:19.787Z,2.88
2022-10-24T04:22:47.528Z,1.95
2022-10-24T04:25:15.254Z,2.75
2022-10-24T04:27:42.127Z,3.38
2022-10-24T04:30:15.531Z,2.50
2022-10-24T04:32:44.339Z,2.60
2022-10-24T04:35:12.031Z,2.55
2022-10-24T04:37:38.863Z,2.65
2022-10-24T04:40:06.661Z,2.40
2022-10-24T04:42:33.464Z,2.22
2022-10-24T04:45:03.069Z,1.75
2022-10-24T04:47:29.771Z,2.10
2022-10-24T04:49:56.463Z,2.30
2022-10-24T04:52:23.412Z,1.63
2022-10-24T04:54:50.221Z,2.25
2022-10-24T04:57:16.971Z,2.40
2022-10-24T04:59:43.688Z,2.03
2022-10-24T05:02:10.453Z,2.28
2022-10-24T05:04:37.195Z,2.08
2022-10-24T05:07:03.911Z,1.60
2022-10-24T05:09:30.645Z,1.77
2022-10-24T05:11:57.734Z,1.95
2022-10-24T05:14:24.792Z,1.92
2022-10-24T05:16:51.774Z,1.83
2022-10-24T05:19:19.625Z,1.60
2022-10-24T05:21:46.675Z,1.92
2022-10-24T05:24:13.514Z,3.05
2022-10-24T05:26:40.268Z,1.65
2022-10-24T05:31:34.891Z,2.60
2022-10-24T05:34:01.640Z,2.03
2022-10-24T05:36:28.372Z,2.55
2022-10-24T05:38:55.722Z,2.17
2022-10-24T05:41:22.503Z,2.00
2022-10-24T05:43:49.252Z,1.98
2022-10-24T05:46:15.984Z,1.27
2022-10-24T05:48:42.790Z,1.92
2022-10-24T05:51:09.646Z,1.38
2022-10-24T05:53:36.375Z,1.77
2022-10-24T05:56:03.124Z,1.40
2022-10-24T05:58:29.798Z,2.22
2022-10-24T06:00:56.602Z,1.65
2022-10-24T06:03:23.399Z,2.10
2022-10-24T06:05:50.854Z,1.50
2022-10-24T06:08:18.043Z,1.98
2022-10-24T06:10:49.794Z,2.58
2022-10-24T06:13:17.522Z,1.70
2022-10-24T06:15:44.701Z,1.38
2022-10-24T06:18:11.677Z,1.92
2022-10-24T06:20:38.775Z,1.17
2022-10-24T06:23:05.465Z,2.10
2022-10-24T06:25:32.304Z,2.25
2022-10-24T06:27:59.401Z,1.42
2022-10-24T06:30:26.379Z,1.40
2022-10-24T06:32:53.248Z,1.98
2022-10-24T06:35:19.962Z,1.30
2022-10-24T06:37:48.265Z,2.03
2022-10-24T06:40:17.005Z,1.58
2022-10-24T06:42:44.133Z,1.73
2022-10-24T06:45:11.419Z,1.30
2022-10-24T06:47:38.456Z,1.40
2022-10-24T06:50:06.399Z,1.52
2022-10-24T06:52:33.199Z,1.27
2022-10-24T06:54:59.895Z,1.83
2022-10-24T06:57:26.660Z,1.95
2022-10-24T06:59:53.637Z,1.70
2022-10-24T07:02:21.033Z,2.40
2022-10-24T07:04:47.850Z,2.28
2022-10-24T07:07:20.057Z,2.15
2022-10-24T07:09:52.786Z,2.42
2022-10-24T07:17:18.846Z,2.67
2022-10-24T07:19:46.067Z,2.28
2022-10-24T07:22:12.785Z,3.40
2022-10-24T07:24:39.473Z,2.30
2022-10-24T07:27:06.212Z,2.28
2022-10-24T07:29:32.926Z,2.40
2022-10-24T07:31:59.660Z,2.28
2022-10-24T07:34:26.421Z,2.20
2022-10-24T07:36:53.194Z,2.00
2022-10-24T07:39:20.005Z,2.25
2022-10-24T07:41:46.813Z,2.03
2022-10-24T07:44:13.529Z,2.65
2022-10-24T07:46:42.486Z,3.50
2022-10-24T07:49:09.834Z,2.17
2022-10-24T07:51:36.642Z,2.30
2022-10-24T07:54:03.608Z,2.00
2022-10-24T07:56:30.313Z,1.85
2022-10-24T07:58:58.271Z,2.38
2022-10-24T08:01:26.019Z,2.25
2022-10-24T08:03:52.989Z,2.90
2022-10-24T08:06:25.280Z,2.47
2022-10-24T08:08:52.005Z,2.00
2022-10-24T08:11:22.240Z,2.55
2022-10-24T08:13:50.399Z,2.53
2022-10-24T08:16:19.054Z,2.28
2022-10-24T08:18:45.765Z,1.77
2022-10-24T08:21:14.338Z,1.63
2022-10-24T08:23:43.463Z,2.75
2022-10-24T08:26:13.271Z,1.63
2022-10-24T08:28:41.948Z,1.98
2022-10-24T08:31:12.403Z,2.47
2022-10-24T08:33:39.558Z,2.28
2022-10-24T08:36:17.873Z,1.88
2022-10-24T08:38:44.893Z,1.98
2022-10-24T08:41:33.556Z,2.38
2022-10-24T08:44:04.038Z,2.30
2022-10-24T08:46:39.256Z,1.23
2022-10-24T08:49:28.830Z,2.10
2022-10-24T08:52:11.170Z,1.88
2022-10-24T08:54:41.025Z,2.00
2022-10-24T08:57:17.349Z,3.13
2022-10-24T08:59:44.044Z,1.98
2022-10-24T09:02:20.356Z,1.77
2022-10-24T09:04:59.520Z,2.13
2022-10-24T09:07:26.743Z,1.40
2022-10-24T09:10:19.559Z,2.05
2022-10-24T09:12:46.277Z,1.88
2022-10-24T09:15:22.326Z,1.70
2022-10-24T09:17:50.127Z,1.70
2022-10-24T09:20:29.202Z,2.08
2022-10-24T09:22:59.762Z,2.10
2022-10-24T09:25:30.601Z,2.17
2022-10-24T09:28:05.840Z,1.80
2022-10-24T09:30:34.279Z,2.83
2022-10-24T09:33:13.154Z,1.60
2022-10-24T09:35:40.519Z,1.70
2022-10-24T09:38:30.191Z,1.75
2022-10-24T09:40:59.004Z,2.03
2022-10-24T09:43:47.117Z,2.28
2022-10-24T09:46:16.453Z,1.92
2022-10-24T09:49:06.883Z,1.67
2022-10-24T09:51:37.322Z,2.13
2022-10-24T09:54:29.039Z,1.70
2022-10-24T09:57:02.788Z,1.92
2022-10-24T09:59:32.591Z,1.70
2022-10-24T10:02:19.088Z,2.00
2022-10-24T10:05:01.918Z,1.60
2022-10-24T10:07:31.450Z,1.88
2022-10-24T10:10:01.267Z,1.83
2022-10-24T10:12:35.149Z,1.90
2022-10-24T10:15:05.045Z,1.45
2022-10-24T10:17:35.678Z,1.73
2022-10-24T10:20:02.462Z,2.28
2022-10-24T10:22:31.862Z,1.50
2022-10-24T10:25:00.117Z,1.52
2022-10-24T10:27:37.122Z,1.20
2022-10-24T10:30:15.971Z,1.52
2022-10-24T10:33:01.757Z,1.42
2022-10-24T10:35:38.537Z,1.55
2022-10-24T10:38:35.254Z,1.70
2022-10-24T10:41:19.189Z,1.27
2022-10-24T10:44:01.275Z,1.00
2022-10-24T10:46:34.132Z,1.40
2022-10-24T10:49:24.195Z,0.93
2022-10-24T10:52:01.417Z,1.20
2022-10-24T10:54:54.928Z,1.20
2022-10-24T10:57:43.447Z,1.30
2022-10-24T11:00:25.413Z,1.00
2022-10-24T11:03:21.086Z,1.27
2022-10-24T11:06:05.393Z,1.17
2022-10-24T11:08:53.863Z,0.95
2022-10-24T11:11:43.307Z,1.08
2022-10-24T11:14:30.736Z,1.30
2022-10-24T11:17:06.733Z,1.10
2022-10-24T11:19:53.441Z,1.20
2022-10-24T11:22:25.886Z,1.27
2022-10-24T11:25:07.138Z,1.45
2022-10-24T11:27:50.590Z,2.20
2022-10-24T11:30:20.664Z,1.63
2022-10-24T11:32:56.446Z,1.27
2022-10-24T11:35:34.398Z,1.73
2022-10-24T11:38:09.079Z,1.10
2022-10-24T11:40:39.513Z,1.40
2022-10-24T11:43:37.414Z,1.00
2022-10-24T11:46:12.870Z,0.85
2022-10-24T11:48:53.307Z,0.70
2022-10-24T11:51:34.922Z,1.00
2022-10-24T11:56:53.752Z,0.55
2022-10-24T11:59:28.155Z,0.63
2022-10-24T12:01:54.943Z,0.73
2022-10-24T12:04:55.739Z,0.68
2022-10-24T12:08:03.968Z,0.70
2022-10-24T12:10:42.431Z,0.82
2022-10-24T12:13:18.348Z,1.10
2022-10-24T12:16:18.178Z,1.95
2022-10-24T12:18:51.083Z,0.90
2022-10-24T12:21:26.308Z,0.90
2022-10-24T12:23:59.003Z,0.90
2022-10-24T12:26:31.721Z,1.17
2022-10-24T12:29:01.519Z,1.13
2022-10-24T12:31:33.376Z,1.23
2022-10-24T12:34:19.026Z,0.80
2022-10-24T12:37:11.913Z,1.08
2022-10-24T12:39:47.906Z,1.05
2022-10-24T12:42:23.892Z,0.93
2022-10-24T12:44:59.910Z,1.20
2022-10-24T12:47:36.711Z,1.20
2022-10-24T12:50:21.963Z,1.40
2022-10-24T12:52:48.765Z,1.33
2022-10-24T12:55:39.635Z,1.20
2022-10-24T12:58:43.051Z,1.05
2022-10-24T13:01:27.603Z,1.17
2022-10-24T13:04:00.668Z,1.20
2022-10-24T13:06:35.421Z,1.10
2022-10-24T13:09:05.115Z,1.42
2022-10-24T13:11:54.107Z,2.42
2022-10-24T13:14:39.034Z,1.80
2022-10-24T13:17:20.750Z,1.67
2022-10-24T13:19:47.649Z,1.30
2022-10-24T13:22:29.549Z,1.65
2022-10-24T13:24:57.153Z,1.80
2022-10-24T13:27:30.596Z,1.40
2022-10-24T13:29:57.296Z,1.38
2022-10-24T13:32:36.139Z,1.63
2022-10-24T13:35:05.744Z,1.98
2022-10-24T13:37:41.275Z,1.33
2022-10-24T13:40:33.180Z,1.65
2022-10-24T13:43:07.812Z,1.30
2022-10-24T13:45:40.446Z,1.60
2022-10-24T13:48:17.054Z,2.55
2022-10-24T13:51:00.922Z,1.60
2022-10-24T13:53:32.025Z,1.30
2022-10-24T13:56:04.016Z,1.30
2022-10-24T13:58:41.011Z,1.27
2022-10-24T14:01:25.129Z,1.23
2022-10-24T14:03:53.373Z,1.40
2022-10-24T14:06:29.636Z,1.55
2022-10-24T14:09:06.757Z,1.50
2022-10-24T14:11:35.211Z,1.70
2022-10-24T14:14:07.213Z,1.30
2022-10-24T14:16:34.987Z,0.90
2022-10-24T14:19:29.642Z,1.35
2022-10-24T14:21:57.985Z,1.13
2022-10-24T14:24:25.122Z,1.23
2022-10-24T14:26:54.067Z,1.40
2022-10-24T14:29:27.606Z,1.25
2022-10-24T14:32:00.223Z,1.77
2022-10-24T14:34:31.435Z,1.70
2022-10-24T14:37:14.042Z,1.75
2022-10-24T14:39:41.472Z,1.40
2022-10-24T14:42:15.279Z,1.40
2022-10-24T14:44:46.186Z,1.10
2022-10-24T14:47:22.985Z,1.70
2022-10-24T14:49:55.990Z,1.70
2022-10-24T14:52:32.248Z,1.70
2022-10-24T14:55:04.445Z,1.30
2022-10-24T14:57:34.165Z,1.48
2022-10-24T15:00:07.489Z,1.50
2022-10-24T15:02:43.718Z,1.50
2022-10-24T15:05:27.180Z,1.70
2022-10-24T15:10:47.472Z,1.42
2022-10-24T15:13:16.891Z,1.55
2022-10-24T15:15:43.543Z,1.55
2022-10-24T15:18:22.432Z,1.50
2022-10-24T15:20:52.303Z,2.05
2022-10-24T15:23:28.479Z,1.48
2022-10-24T15:26:24.482Z,1.48
2022-10-24T15:29:02.139Z,1.80
2022-10-24T15:31:29.981Z,1.50
2022-10-24T15:33:56.897Z,1.85
2022-10-24T15:36:29.567Z,2.08
2022-10-24T15:39:12.168Z,2.72
2022-10-24T15:41:40.095Z,2.28
2022-10-24T15:44:14.024Z,2.15
2022-10-24T15:46:40.759Z,2.20
2022-10-24T15:49:07.503Z,2.15
2022-10-24T15:51:36.882Z,2.10
2022-10-24T15:54:03.609Z,3.08
2022-10-24T15:56:30.341Z,1.90
2022-10-24T15:58:57.077Z,2.30
2022-10-24T16:01:36.114Z,2.42
2022-10-24T16:04:05.425Z,2.15
2022-10-24T16:06:32.157Z,2.25
2022-10-24T16:08:58.935Z,2.50
2022-10-24T16:11:25.782Z,2.53
2022-10-24T16:13:53.041Z,2.35
2022-10-24T16:16:19.911Z,2.20
2022-10-24T16:18:47.124Z,2.45
2022-10-24T16:21:21.405Z,2.10
2022-10-24T16:23:52.431Z,1.55
2022-10-24T16:26:19.158Z,2.17
2022-10-24T16:28:45.853Z,1.98
2022-10-24T16:31:18.604Z,2.05
2022-10-24T16:33:48.179Z,2.30
2022-10-24T16:36:18.399Z,2.17
2022-10-24T16:38:47.562Z,2.95
2022-10-24T16:41:18.957Z,3.50
2022-10-24T16:43:49.060Z,2.78
2022-10-24T16:46:21.707Z,2.78
2022-10-24T16:48:49.198Z,2.40
2022-10-24T16:51:19.731Z,1.90
2022-10-24T16:53:46.493Z,2.80
2022-10-24T16:56:14.645Z,1.92
2022-10-24T16:58:41.778Z,2.22
2022-10-24T17:01:10.961Z,2.55
2022-10-24T17:03:38.304Z,2.15
2022-10-24T17:06:06.067Z,2.40
2022-10-24T17:08:33.083Z,2.30
2022-10-24T17:11:00.804Z,2.40
2022-10-24T17:13:28.050Z,2.30
2022-10-24T17:15:55.033Z,2.88
2022-10-24T17:18:23.501Z,2.22
2022-10-24T17:20:50.618Z,2.47
2022-10-24T17:23:20.651Z,2.33
2022-10-24T17:25:47.556Z,1.90
2022-10-24T17:28:16.143Z,1.80
2022-10-24T17:30:43.593Z,2.25
2022-10-24T17:33:11.371Z,1.95
2022-10-24T17:35:45.789Z,2.22
2022-10-24T17:38:42.425Z,2.47
2022-10-24T17:41:23.447Z,1.80
2022-10-24T17:43:50.489Z,1.65
2022-10-24T17:46:17.581Z,1.75
2022-10-24T17:48:44.320Z,1.77
2022-10-24T17:51:14.904Z,1.92
2022-10-24T17:53:41.993Z,2.00
2022-10-24T17:56:09.611Z,2.03
2022-10-24T17:58:36.419Z,1.95
2022-10-24T18:01:03.349Z,1.65
2022-10-24T18:03:30.282Z,1.88
2022-10-24T18:06:01.886Z,1.80
2022-10-24T18:11:01.083Z,1.35
2022-10-24T18:13:28.182Z,1.98
2022-10-24T18:15:55.646Z,1.58
2022-10-24T18:18:22.421Z,1.50
2022-10-24T18:20:49.334Z,2.20
2022-10-24T18:23:16.226Z,1.70
2022-10-24T18:25:42.930Z,1.60
2022-10-24T18:28:09.758Z,2.22
2022-10-24T18:30:36.783Z,1.58
2022-10-24T18:33:03.646Z,1.58
2022-10-24T18:35:33.154Z,1.88
2022-10-24T18:38:00.122Z,1.70
2022-10-24T18:40:27.281Z,2.92
2022-10-24T18:42:58.644Z,2.15
2022-10-24T18:47:54.405Z,1.80
2022-10-24T18:50:23.851Z,1.73
2022-10-24T18:52:50.576Z,1.92
2022-10-24T18:55:26.896Z,1.80
2022-10-24T18:57:54.067Z,1.60
2022-10-24T19:00:26.316Z,1.27
2022-10-24T19:03:21.637Z,1.77
2022-10-24T19:06:08.029Z,1.98
2022-10-24T19:08:34.841Z,1.40
2022-10-24T19:11:01.730Z,2.15
2022-10-24T19:13:28.503Z,1.60
2022-10-24T19:16:01.122Z,1.40
2022-10-24T19:18:30.359Z,1.42
2022-10-24T19:20:57.134Z,1.50
2022-10-24T19:23:24.664Z,1.92
2022-10-24T19:25:51.776Z,1.35
2022-10-24T19:28:19.701Z,1.50
2022-10-24T19:30:47.514Z,1.50
2022-10-24T19:33:15.518Z,1.27
2022-10-24T19:35:46.960Z,1.58
2022-10-24T19:40:49.681Z,1.20
2022-10-24T19:43:16.519Z,1.13
2022-10-24T19:45:50.570Z,0.80
2022-10-24T19:48:34.301Z,0.88
2022-10-24T19:51:12.211Z,1.35
2022-10-24T19:53:41.147Z,0.77
2022-10-24T19:56:23.949Z,1.13
2022-10-24T19:58:52.844Z,1.27
2022-10-24T20:01:22.557Z,1.02
2022-10-24T20:03:50.509Z,1.13
2022-10-24T20:06:18.083Z,1.33
2022-10-24T20:08:49.250Z,0.80
2022-10-24T20:11:17.502Z,0.77
2022-10-24T20:13:44.662Z,0.88
2022-10-24T20:16:11.912Z,0.55
2022-10-24T20:21:11.698Z,0.80
2022-10-24T20:23:40.591Z,0.70
2022-10-24T20:26:13.203Z,0.60
2022-10-24T20:28:48.489Z,0.60
2022-10-24T20:31:25.277Z,0.63
2022-10-24T20:33:52.847Z,0.90
2022-10-24T20:36:21.230Z,0.70
2022-10-24T20:38:47.946Z,0.45
2022-10-24T20:41:14.767Z,0.73
2022-10-24T20:43:41.477Z,0.57
2022-10-24T20:46:08.357Z,0.50
2022-10-24T20:48:35.668Z,0.60
2022-10-24T20:51:28.879Z,0.60
2022-10-24T20:53:55.636Z,0.55
2022-10-24T20:56:26.079Z,1.40
2022-10-24T20:58:54.533Z,1.15
2022-10-24T21:01:24.114Z,1.52
2022-10-24T21:03:52.386Z,1.23
2022-10-24T21:06:25.538Z,1.30
2022-10-24T21:08:54.351Z,1.42
2022-10-24T21:11:25.771Z,1.20
2022-10-24T21:13:54.414Z,1.45
2022-10-24T21:16:21.945Z,2.00
2022-10-24T21:18:48.959Z,2.33
2022-10-24T21:21:16.597Z,1.92
2022-10-24T21:23:43.854Z,1.33
2022-10-24T21:26:13.784Z,1.75
2022-10-24T21:28:40.851Z,1.70
2022-10-24T21:31:13.610Z,2.88
2022-10-24T21:33:43.919Z,1.52
2022-10-24T21:36:19.636Z,2.10
2022-10-24T21:38:47.924Z,5.45
2022-10-24T21:41:15.064Z,6.47
2022-10-24T21:43:42.565Z,3.42
2022-10-24T21:46:12.675Z,4.13
2022-10-24T21:48:40.709Z,4.30
2022-10-24T21:51:17.661Z,2.72
2022-10-24T21:53:45.466Z,1.58
2022-10-24T21:56:16.333Z,1.30
2022-10-24T21:58:47.548Z,1.80
2022-10-24T22:01:17.475Z,2.50
2022-10-24T22:03:44.705Z,2.78
2022-10-24T22:06:12.942Z,1.88
2022-10-24T22:08:39.653Z,2.20
2022-10-24T22:11:13.379Z,1.80
2022-10-24T22:13:40.321Z,1.90
2022-10-24T22:16:09.191Z,1.98
2022-10-24T22:18:36.971Z,2.17
2022-10-24T22:21:06.133Z,1.10
2022-10-24T22:23:32.905Z,1.98
2022-10-24T22:26:02.018Z,1.05
2022-10-24T22:28:29.181Z,1.70
2022-10-24T22:30:56.182Z,3.33
2022-10-24T22:33:37.755Z,4.60
2022-10-24T22:36:29.138Z,2.50
2022-10-24T22:38:56.842Z,1.60
2022-10-24T22:41:24.669Z,1.80
2022-10-24T22:43:51.726Z,0.98
2022-10-24T22:46:31.539Z,1.23
2022-10-24T22:49:07.920Z,0.98
2022-10-24T22:51:34.999Z,1.27
2022-10-24T22:54:01.953Z,1.10
2022-10-24T22:56:33.381Z,0.70
2022-10-24T22:59:01.453Z,0.98
2022-10-24T23:01:42.912Z,1.67
2022-10-24T23:04:45.322Z,1.40
2022-10-24T23:07:27.646Z,1.92
2022-10-24T23:09:55.022Z,1.00
2022-10-24T23:12:22.790Z,1.02
2022-10-24T23:14:50.965Z,0.70
2022-10-24T23:17:29.222Z,0.70
2022-10-24T23:19:56.848Z,1.30
2022-10-24T23:22:25.192Z,1.17
2022-10-24T23:24:54.013Z,1.23
2022-10-24T23:27:26.724Z,0.80
2022-10-24T23:29:53.703Z,0.90
2022-10-24T23:32:29.244Z,0.80
2022-10-24T23:34:57.579Z,0.95
2022-10-24T23:37:32.804Z,1.75
2022-10-24T23:40:01.297Z,2.45
2022-10-24T23:42:28.423Z,0.75
2022-10-24T23:44:55.436Z,1.23
2022-10-24T23:47:42.921Z,1.02
2022-10-24T23:50:15.947Z,1.00
2022-10-24T23:53:04.726Z,1.85
2022-10-24T23:55:31.855Z,1.10
2022-10-24T23:57:59.563Z,1.23
